createdAt,value
2018-03-09T00:00:26.383Z,99.02
2018-03-09T00:01:26.368Z,99.16
2018-03-09T00:02:26.362Z,99.54
2018-03-09T00:03:26.092Z,99.82
2018-03-09T00:04:26.337Z,99.73
2018-03-09T00:05:26.328Z,99.73
2018-03-09T00:06:26.322Z,99.99
2018-03-09T00:07:26.351Z,99.54
2018-03-09T00:08:26.293Z,99.63
2018-03-09T00:09:26.278Z,99.63
2018-03-09T00:10:26.270Z,99.44
2018-03-09T00:11:26.258Z,99.63
2018-03-09T00:12:26.010Z,99.54
2018-03-09T00:13:26.236Z,99.63
2018-03-09T00:14:26.226Z,98.78
2018-03-09T00:15:26.211Z,99.06
2018-03-09T00:16:26.198Z,99.35
2018-03-09T00:17:26.188Z,99.3
2018-03-09T00:18:26.181Z,98.82
2018-03-09T00:19:26.165Z,99.01
2018-03-09T00:20:26.156Z,99.11
2018-03-09T00:21:26.147Z,99.39
2018-03-09T00:22:25.877Z,98.82
2018-03-09T00:23:26.118Z,98.82
2018-03-09T00:24:26.147Z,99.01
2018-03-09T00:25:26.094Z,98.82
2018-03-09T00:26:26.085Z,99.58
2018-03-09T00:27:26.075Z,99.15
2018-03-09T00:28:26.062Z,99.82
2018-03-09T00:29:26.046Z,99.72
2018-03-09T00:30:26.048Z,99.34
2018-03-09T00:31:26.021Z,99.44
2018-03-09T00:32:26.061Z,99.99
2018-03-09T00:33:26.001Z,99.99
2018-03-09T00:34:25.989Z,99.99
2018-03-09T00:35:25.972Z,99.86
2018-03-09T00:36:26.009Z,99.99
2018-03-09T00:37:25.947Z,99.99
2018-03-09T00:38:25.935Z,99.99
2018-03-09T00:39:25.923Z,99.99
2018-03-09T00:40:25.656Z,99.99
2018-03-09T00:41:25.898Z,99.99
2018-03-09T00:42:25.890Z,99.99
2018-03-09T00:43:25.874Z,99.99
2018-03-09T00:44:25.860Z,99.99
2018-03-09T00:45:25.851Z,99.99
2018-03-09T00:46:25.834Z,99.99
2018-03-09T00:47:25.824Z,99.99
2018-03-09T00:48:25.813Z,99.99
2018-03-09T00:49:25.798Z,99.99
2018-03-09T00:50:25.785Z,99.99
2018-03-09T00:51:25.776Z,99.99
2018-03-09T00:52:25.757Z,99.99
2018-03-09T00:53:25.746Z,99.99
2018-03-09T00:54:25.730Z,99.99
2018-03-09T00:55:25.725Z,99.99
2018-03-09T00:56:25.711Z,99.99
2018-03-09T00:57:25.700Z,99.99
2018-03-09T00:58:25.699Z,99.99
2018-03-09T00:59:25.666Z,99.99
2018-03-09T01:00:25.399Z,99.99
2018-03-09T01:01:25.642Z,99.99
2018-03-09T01:02:25.628Z,99.99
2018-03-09T01:03:25.616Z,99.99
2018-03-09T01:04:25.602Z,99.99
2018-03-09T01:05:25.586Z,99.99
2018-03-09T01:06:25.573Z,99.99
2018-03-09T01:07:25.563Z,99.99
2018-03-09T01:08:25.547Z,99.99
2018-03-09T01:09:25.553Z,99.99
2018-03-09T01:10:25.522Z,99.99
2018-03-09T01:11:25.504Z,99.99
2018-03-09T01:12:25.496Z,99.99
2018-03-09T01:13:25.480Z,99.43
2018-03-09T01:14:25.476Z,99.99
2018-03-09T01:15:25.451Z,99.67
2018-03-09T01:16:25.442Z,99.77
2018-03-09T01:17:25.425Z,99.77
2018-03-09T01:18:25.414Z,99.67
2018-03-09T01:19:25.432Z,99.99
2018-03-09T01:20:25.389Z,99.86
2018-03-09T01:21:25.376Z,99.67
2018-03-09T01:22:25.359Z,99.77
2018-03-09T01:23:25.349Z,99.96
2018-03-09T01:24:25.333Z,99.96
2018-03-09T01:25:25.325Z,98.82
2018-03-09T01:26:25.049Z,99.2
2018-03-09T01:27:25.298Z,99.1
2018-03-09T01:28:25.287Z,99.29
2018-03-09T01:29:25.263Z,99.39
2018-03-09T01:30:25.253Z,99.39
2018-03-09T01:31:25.243Z,99.29
2018-03-09T01:32:25.231Z,99.39
2018-03-09T01:33:25.214Z,99.29
2018-03-09T01:34:25.216Z,99.39
2018-03-09T01:35:25.194Z,99.2
2018-03-09T01:36:25.171Z,99.29
2018-03-09T01:37:25.157Z,99.29
2018-03-09T01:38:25.152Z,99.39
2018-03-09T01:39:25.156Z,99.1
2018-03-09T01:40:25.117Z,99.1
2018-03-09T01:41:25.109Z,99.1
2018-03-09T01:42:25.092Z,99.48
2018-03-09T01:43:25.082Z,99.1
2018-03-09T01:44:25.139Z,99.39
2018-03-09T01:45:25.054Z,99.48
2018-03-09T01:46:25.044Z,99.29
2018-03-09T01:47:25.032Z,99.29
2018-03-09T01:48:25.016Z,98.82
2018-03-09T01:49:25.001Z,98.91
2018-03-09T01:50:24.990Z,98.82
2018-03-09T01:51:24.975Z,99.1
2018-03-09T01:52:24.962Z,98.91
2018-03-09T01:53:24.945Z,98.63
2018-03-09T01:54:24.694Z,98.87
2018-03-09T01:55:24.926Z,98.87
2018-03-09T01:56:24.913Z,98.77
2018-03-09T01:57:25.003Z,98.87
2018-03-09T01:58:24.631Z,98.39
2018-03-09T01:59:24.871Z,98.39
2018-03-09T02:00:24.604Z,98.58
2018-03-09T02:01:24.845Z,98.39
2018-03-09T02:02:24.828Z,98.87
2018-03-09T02:03:24.816Z,98.3
2018-03-09T02:04:24.803Z,98.58
2018-03-09T02:05:24.790Z,98.58
2018-03-09T02:06:24.777Z,98.3
2018-03-09T02:07:24.767Z,97.92
2018-03-09T02:08:24.752Z,97.73
2018-03-09T02:09:24.484Z,98.02
2018-03-09T02:10:24.727Z,98.11
2018-03-09T02:11:24.460Z,97.83
2018-03-09T02:12:24.447Z,97.92
2018-03-09T02:13:24.687Z,97.49
2018-03-09T02:14:24.427Z,97.87
2018-03-09T02:15:24.410Z,97.49
2018-03-09T02:16:24.653Z,98.25
2018-03-09T02:17:24.637Z,98.06
2018-03-09T02:18:24.375Z,97.87
2018-03-09T02:19:24.616Z,97.78
2018-03-09T02:20:24.598Z,98.06
2018-03-09T02:21:24.334Z,97.87
2018-03-09T02:22:24.576Z,98.06
2018-03-09T02:23:24.563Z,98.25
2018-03-09T02:24:24.298Z,98.72
2018-03-09T02:25:24.537Z,98.44
2018-03-09T02:26:24.523Z,98.44
2018-03-09T02:27:24.513Z,98.35
2018-03-09T02:28:24.506Z,98.06
2018-03-09T02:29:24.481Z,98.16
2018-03-09T02:30:24.233Z,98.44
2018-03-09T02:31:24.204Z,98.39
2018-03-09T02:32:24.447Z,98.11
2018-03-09T02:33:24.176Z,98.49
2018-03-09T02:34:24.433Z,98.54
2018-03-09T02:35:24.158Z,98.39
2018-03-09T02:36:24.398Z,98.58
2018-03-09T02:37:24.125Z,98.3
2018-03-09T02:38:24.371Z,98.3
2018-03-09T02:39:24.359Z,98.02
2018-03-09T02:40:24.345Z,97.73
2018-03-09T02:41:24.330Z,97.92
2018-03-09T02:42:24.320Z,97.92
2018-03-09T02:43:24.310Z,97.64
2018-03-09T02:44:24.288Z,98.11
2018-03-09T02:45:24.279Z,98.02
2018-03-09T02:46:24.268Z,98.02
2018-03-09T02:47:24.254Z,98.02
2018-03-09T02:48:24.252Z,98.3
2018-03-09T02:49:24.230Z,98.3
2018-03-09T02:50:24.212Z,98.11
2018-03-09T02:51:24.200Z,98.3
2018-03-09T02:52:24.190Z,97.64
2018-03-09T02:53:24.187Z,97.64
2018-03-09T02:54:24.166Z,97.73
2018-03-09T02:55:24.149Z,97.64
2018-03-09T02:56:23.882Z,97.59
2018-03-09T02:57:24.123Z,97.4
2018-03-09T02:58:24.109Z,97.3
2018-03-09T02:59:24.102Z,97.4
2018-03-09T03:00:24.087Z,97.49
2018-03-09T03:01:24.070Z,97.59
2018-03-09T03:02:24.070Z,97.3
2018-03-09T03:03:24.048Z,97.21
2018-03-09T03:04:24.047Z,97.49
2018-03-09T03:05:24.020Z,97.49
2018-03-09T03:06:23.753Z,97.49
2018-03-09T03:07:23.994Z,97.59
2018-03-09T03:08:23.980Z,97.59
2018-03-09T03:09:23.969Z,97.59
2018-03-09T03:10:23.954Z,97.68
2018-03-09T03:11:23.946Z,97.49
2018-03-09T03:12:23.930Z,97.78
2018-03-09T03:13:23.914Z,97.97
2018-03-09T03:14:23.903Z,97.78
2018-03-09T03:15:23.891Z,97.68
2018-03-09T03:16:23.878Z,97.68
2018-03-09T03:17:23.864Z,97.78
2018-03-09T03:18:23.852Z,97.68
2018-03-09T03:19:23.839Z,97.92
2018-03-09T03:20:23.830Z,98.35
2018-03-09T03:21:23.820Z,98.68
2018-03-09T03:22:23.797Z,98.11
2018-03-09T03:23:23.784Z,98.11
2018-03-09T03:24:23.771Z,98.3
2018-03-09T03:25:23.758Z,98.11
2018-03-09T03:26:23.744Z,98.11
2018-03-09T03:27:23.728Z,98.49
2018-03-09T03:28:23.716Z,98.3
2018-03-09T03:29:23.704Z,98.01
2018-03-09T03:30:23.690Z,97.82
2018-03-09T03:31:23.422Z,98.3
2018-03-09T03:32:23.664Z,98.01
2018-03-09T03:33:23.653Z,97.82
2018-03-09T03:34:23.638Z,97.73
2018-03-09T03:35:23.624Z,98.49
2018-03-09T03:36:23.612Z,98.2
2018-03-09T03:37:23.593Z,98.01
2018-03-09T03:38:23.657Z,98.2
2018-03-09T03:39:23.566Z,98.2
2018-03-09T03:40:23.557Z,98.3
2018-03-09T03:41:23.301Z,98.11
2018-03-09T03:42:23.527Z,98.2
2018-03-09T03:43:23.512Z,98.39
2018-03-09T03:44:23.498Z,98.39
2018-03-09T03:45:23.487Z,98.49
2018-03-09T03:46:23.472Z,98.11
2018-03-09T03:47:23.455Z,98.2
2018-03-09T03:48:23.450Z,98.11
2018-03-09T03:49:23.176Z,98.2
2018-03-09T03:50:23.418Z,98.49
2018-03-09T03:51:23.404Z,98.49
2018-03-09T03:52:23.393Z,98.49
2018-03-09T03:53:23.381Z,98.49
2018-03-09T03:54:23.359Z,98.58
2018-03-09T03:55:23.347Z,98.49
2018-03-09T03:56:23.335Z,98.58
2018-03-09T03:57:23.319Z,98.39
2018-03-09T03:58:23.307Z,98.58
2018-03-09T03:59:23.298Z,98.58
2018-03-09T04:00:23.286Z,98.58
2018-03-09T04:01:23.265Z,98.58
2018-03-09T04:02:23.257Z,98.3
2018-03-09T04:03:23.240Z,98.49
2018-03-09T04:04:23.242Z,98.58
2018-03-09T04:05:23.209Z,98.2
2018-03-09T04:06:22.939Z,98.58
2018-03-09T04:07:23.186Z,98.77
2018-03-09T04:08:23.171Z,98.86
2018-03-09T04:09:23.152Z,98.86
2018-03-09T04:10:23.144Z,98.68
2018-03-09T04:11:23.126Z,98.86
2018-03-09T04:12:23.113Z,99.05
2018-03-09T04:13:22.845Z,98.77
2018-03-09T04:14:23.083Z,98.77
2018-03-09T04:15:23.068Z,98.77
2018-03-09T04:16:23.061Z,98.77
2018-03-09T04:17:23.042Z,98.77
2018-03-09T04:18:23.032Z,98.68
2018-03-09T04:19:22.760Z,98.3
2018-03-09T04:20:23.004Z,98.49
2018-03-09T04:21:22.989Z,98.77
2018-03-09T04:22:22.972Z,98.86
2018-03-09T04:23:22.956Z,98.96
2018-03-09T04:24:22.949Z,98.86
2018-03-09T04:25:22.936Z,99.05
2018-03-09T04:26:22.916Z,98.86
2018-03-09T04:27:22.903Z,98.77
2018-03-09T04:28:22.885Z,98.68
2018-03-09T04:29:22.874Z,98.39
2018-03-09T04:30:22.861Z,98.58
2018-03-09T04:31:22.848Z,98.39
2018-03-09T04:32:22.835Z,98.01
2018-03-09T04:33:22.821Z,98.01
2018-03-09T04:34:22.805Z,97.92
2018-03-09T04:35:22.791Z,97.87
2018-03-09T04:36:22.777Z,98.11
2018-03-09T04:37:22.763Z,98.3
2018-03-09T04:38:22.753Z,98.3
2018-03-09T04:39:22.737Z,98.11
2018-03-09T04:40:22.726Z,98.3
2018-03-09T04:41:22.708Z,97.78
2018-03-09T04:42:22.694Z,97.59
2018-03-09T04:43:22.686Z,97.68
2018-03-09T04:44:22.684Z,97.59
2018-03-09T04:45:22.406Z,97.49
2018-03-09T04:46:22.643Z,97.3
2018-03-09T04:47:22.632Z,96.73
2018-03-09T04:48:22.612Z,96.83
2018-03-09T04:49:22.601Z,97.11
2018-03-09T04:50:22.585Z,96.83
2018-03-09T04:51:22.578Z,97.21
2018-03-09T04:52:22.312Z,97.21
2018-03-09T04:53:22.553Z,96.73
2018-03-09T04:54:22.535Z,97.02
2018-03-09T04:55:22.526Z,97.21
2018-03-09T04:56:22.505Z,97.16
2018-03-09T04:57:22.493Z,97.07
2018-03-09T04:58:22.226Z,96.78
2018-03-09T04:59:22.473Z,96.78
2018-03-09T05:00:22.460Z,96.5
2018-03-09T05:01:22.441Z,96.69
2018-03-09T05:02:22.430Z,96.69
2018-03-09T05:03:22.415Z,96.31
2018-03-09T05:04:22.403Z,96.59
2018-03-09T05:05:22.388Z,95.74
2018-03-09T05:06:22.375Z,95.93
2018-03-09T05:07:22.367Z,96.03
2018-03-09T05:08:22.364Z,95.84
2018-03-09T05:09:22.344Z,96.22
2018-03-09T05:10:22.373Z,95.93
2018-03-09T05:11:22.318Z,96.22
2018-03-09T05:12:22.299Z,96.03
2018-03-09T05:13:22.294Z,95.36
2018-03-09T05:14:22.278Z,95.36
2018-03-09T05:15:22.264Z,95.55
2018-03-09T05:16:22.248Z,95.74
2018-03-09T05:17:22.235Z,95.74
2018-03-09T05:18:22.221Z,95.36
2018-03-09T05:19:22.228Z,95.55
2018-03-09T05:20:22.200Z,95.55
2018-03-09T05:21:22.190Z,95.55
2018-03-09T05:22:22.172Z,95.65
2018-03-09T05:23:22.157Z,96.22
2018-03-09T05:24:22.148Z,96.12
2018-03-09T05:25:22.133Z,95.74
2018-03-09T05:26:22.124Z,96.03
2018-03-09T05:27:22.110Z,95.93
2018-03-09T05:28:22.096Z,95.93
2018-03-09T05:29:22.084Z,95.65
2018-03-09T05:30:22.071Z,95.65
2018-03-09T05:31:22.062Z,95.45
2018-03-09T05:32:21.793Z,95.6
2018-03-09T05:33:22.036Z,95.55
2018-03-09T05:34:22.024Z,95.5
2018-03-09T05:35:22.013Z,95.6
2018-03-09T05:36:22.038Z,94.84
2018-03-09T05:37:21.984Z,94.84
2018-03-09T05:38:21.970Z,94.37
2018-03-09T05:39:21.959Z,94.65
2018-03-09T05:40:21.952Z,94.84
2018-03-09T05:41:21.679Z,94.93
2018-03-09T05:42:21.932Z,94.93
2018-03-09T05:43:21.919Z,94.93
2018-03-09T05:44:21.900Z,94.46
2018-03-09T05:45:21.886Z,94.56
2018-03-09T05:46:21.883Z,94.46
2018-03-09T05:47:21.858Z,94.46
2018-03-09T05:48:21.856Z,94.18
2018-03-09T05:49:21.586Z,94.46
2018-03-09T05:50:21.828Z,94.27
2018-03-09T05:51:21.813Z,94.27
2018-03-09T05:52:21.801Z,94.27
2018-03-09T05:53:21.787Z,94.08
2018-03-09T05:54:21.776Z,93.89
2018-03-09T05:55:21.776Z,93.89
2018-03-09T05:56:21.751Z,94.08
2018-03-09T05:57:21.742Z,94.37
2018-03-09T05:58:21.729Z,93.51
2018-03-09T05:59:21.714Z,93.89
2018-03-09T06:00:21.714Z,93.51
2018-03-09T06:01:21.690Z,93.23
2018-03-09T06:02:21.677Z,93.61
2018-03-09T06:03:21.666Z,93.7
2018-03-09T06:04:21.656Z,93.61
2018-03-09T06:05:21.641Z,93.7
2018-03-09T06:06:21.631Z,93.7
2018-03-09T06:07:21.617Z,93.56
2018-03-09T06:08:21.605Z,93.41
2018-03-09T06:09:21.596Z,93.51
2018-03-09T06:10:21.582Z,93.51
2018-03-09T06:11:21.565Z,93.61
2018-03-09T06:12:21.560Z,93.51
2018-03-09T06:13:21.542Z,93.41
2018-03-09T06:14:21.530Z,93.61
2018-03-09T06:15:21.520Z,93.99
2018-03-09T06:16:21.505Z,93.8
2018-03-09T06:17:21.498Z,93.99
2018-03-09T06:18:21.484Z,93.56
2018-03-09T06:19:21.217Z,93.65
2018-03-09T06:20:21.458Z,93.46
2018-03-09T06:21:21.449Z,92.99
2018-03-09T06:22:21.437Z,92.8
2018-03-09T06:23:21.423Z,92.23
2018-03-09T06:24:21.418Z,92.33
2018-03-09T06:25:21.404Z,91.94
2018-03-09T06:26:21.134Z,93.08
2018-03-09T06:27:21.377Z,92.33
2018-03-09T06:28:21.140Z,92.42
2018-03-09T06:29:21.358Z,91.94
2018-03-09T06:30:21.343Z,91.66
2018-03-09T06:31:21.333Z,92.14
2018-03-09T06:32:21.324Z,92.04
2018-03-09T06:33:21.388Z,92.14
2018-03-09T06:34:21.301Z,91.94
2018-03-09T06:35:21.032Z,91.94
2018-03-09T06:36:21.275Z,92.14
2018-03-09T06:37:21.269Z,92.14
2018-03-09T06:38:21.261Z,91.94
2018-03-09T06:39:21.242Z,92.23
2018-03-09T06:40:21.232Z,92.23
2018-03-09T06:41:20.963Z,91.66
2018-03-09T06:42:21.209Z,91.66
2018-03-09T06:43:21.196Z,91.99
2018-03-09T06:44:21.194Z,91.8
2018-03-09T06:45:20.918Z,91.56
2018-03-09T06:46:21.166Z,91.94
2018-03-09T06:47:21.156Z,92.09
2018-03-09T06:48:21.148Z,91.56
2018-03-09T06:49:21.130Z,91.71
2018-03-09T06:50:20.866Z,91.89
2018-03-09T06:51:21.113Z,91.8
2018-03-09T06:52:21.204Z,91.71
2018-03-09T06:53:21.087Z,91.42
2018-03-09T06:54:21.079Z,91.38
2018-03-09T06:55:21.085Z,90.05
2018-03-09T06:56:21.060Z,90.23
2018-03-09T06:57:21.049Z,90.23
2018-03-09T06:58:21.042Z,90.33
2018-03-09T06:59:21.031Z,90.23
2018-03-09T07:00:21.018Z,89.86
2018-03-09T07:01:21.010Z,89.67
2018-03-09T07:02:21.001Z,89.52
2018-03-09T07:03:20.737Z,88.09
2018-03-09T07:04:20.984Z,87.81
2018-03-09T07:05:20.973Z,87.71
2018-03-09T07:06:20.966Z,87.9
2018-03-09T07:07:20.958Z,88.09
2018-03-09T07:08:20.960Z,88.67
2018-03-09T07:09:20.681Z,88.67
2018-03-09T07:10:20.929Z,88.76
2018-03-09T07:11:20.923Z,88.09
2018-03-09T07:12:20.912Z,87.71
2018-03-09T07:13:20.900Z,88
2018-03-09T07:14:20.902Z,87.81
2018-03-09T07:15:20.904Z,87.62
2018-03-09T07:16:20.874Z,87.38
2018-03-09T07:17:20.868Z,87.52
2018-03-09T07:18:20.606Z,87.38
2018-03-09T07:19:20.850Z,87.19
2018-03-09T07:20:20.847Z,86.52
2018-03-09T07:21:20.835Z,86.24
2018-03-09T07:22:20.830Z,86.61
2018-03-09T07:23:20.825Z,86.43
2018-03-09T07:24:20.817Z,86.52
2018-03-09T07:25:20.802Z,85.76
2018-03-09T07:26:20.802Z,85.95
2018-03-09T07:27:20.534Z,85.99
2018-03-09T07:28:20.797Z,85.42
2018-03-09T07:29:20.775Z,85.04
2018-03-09T07:30:20.776Z,84.56
2018-03-09T07:31:20.766Z,84.28
2018-03-09T07:32:20.757Z,84.38
2018-03-09T07:33:20.748Z,84.42
2018-03-09T07:34:20.756Z,84.61
2018-03-09T07:35:20.740Z,84.42
2018-03-09T07:36:20.736Z,83.09
2018-03-09T07:37:20.727Z,83.56
2018-03-09T07:38:20.722Z,82.93
2018-03-09T07:39:20.721Z,81.79
2018-03-09T07:40:20.720Z,81.7
2018-03-09T07:41:20.710Z,82.08
2018-03-09T07:42:20.700Z,81.89
2018-03-09T07:43:20.695Z,81.7
2018-03-09T07:44:20.697Z,80.75
2018-03-09T07:45:20.693Z,80.5
2018-03-09T07:46:20.682Z,80.41
2018-03-09T07:47:20.678Z,81.07
2018-03-09T07:48:20.673Z,80.6
2018-03-09T07:49:20.414Z,80.79
2018-03-09T07:50:20.663Z,79.68
2018-03-09T07:51:20.662Z,78.64
2018-03-09T07:52:20.657Z,78.5
2018-03-09T07:53:20.658Z,78.54
2018-03-09T07:54:20.663Z,78.88
2018-03-09T07:55:20.648Z,78.59
2018-03-09T07:56:20.644Z,78.73
2018-03-09T07:57:20.645Z,78.35
2018-03-09T07:58:20.376Z,78.73
2018-03-09T07:59:20.628Z,78.78
2018-03-09T08:00:20.628Z,79.02
2018-03-09T08:01:20.631Z,78.54
2018-03-09T08:02:20.617Z,77.59
2018-03-09T08:03:20.641Z,77.78
2018-03-09T08:04:20.608Z,77.87
2018-03-09T08:05:20.605Z,77.59
2018-03-09T08:06:20.607Z,77.59
2018-03-09T08:07:20.609Z,77.3
2018-03-09T08:08:20.591Z,76.06
2018-03-09T08:09:20.589Z,77.2
2018-03-09T08:10:20.587Z,76.73
2018-03-09T08:11:20.586Z,76.44
2018-03-09T08:12:20.586Z,76.82
2018-03-09T08:13:20.564Z,77.64
2018-03-09T08:14:20.304Z,78.03
2018-03-09T08:15:20.555Z,77.74
2018-03-09T08:16:20.701Z,77.55
2018-03-09T08:17:20.285Z,77.64
2018-03-09T08:18:20.281Z,77.83
2018-03-09T08:19:20.526Z,77.93
2018-03-09T08:20:20.267Z,78.41
2018-03-09T08:21:20.880Z,77.83
2018-03-09T08:22:20.254Z,77.45
2018-03-09T08:23:20.503Z,77.8
2018-03-09T08:24:20.494Z,78.65
2018-03-09T08:25:20.492Z,79.03
2018-03-09T08:26:20.482Z,79.13
2018-03-09T08:27:20.475Z,79.41
2018-03-09T08:28:20.469Z,79.6
2018-03-09T08:29:20.206Z,79.99
2018-03-09T08:30:20.536Z,80.04
2018-03-09T08:31:20.447Z,80.23
2018-03-09T08:32:20.441Z,80.04
2018-03-09T08:33:20.433Z,80.99
2018-03-09T08:34:20.424Z,80.61
2018-03-09T08:35:20.433Z,80.71
2018-03-09T08:36:20.421Z,80.8
2018-03-09T08:37:20.409Z,80.61
2018-03-09T08:38:20.390Z,79.89
2018-03-09T08:39:20.394Z,79.99
2018-03-09T08:40:20.382Z,79.99
2018-03-09T08:41:20.373Z,80.18
2018-03-09T08:42:20.114Z,80.55
2018-03-09T08:43:20.370Z,79.99
2018-03-09T08:44:20.350Z,79.99
2018-03-09T08:45:20.342Z,80.08
2018-03-09T08:46:20.338Z,79.51
2018-03-09T08:47:20.327Z,79.6
2018-03-09T08:48:20.317Z,78.94
2018-03-09T08:49:20.318Z,79.22
2018-03-09T08:50:20.307Z,79.03
2018-03-09T08:51:20.294Z,78.56
2018-03-09T08:52:20.288Z,79.13
2018-03-09T08:53:20.024Z,79.51
2018-03-09T08:54:20.018Z,78.85
2018-03-09T08:55:20.273Z,78.46
2018-03-09T08:56:20.003Z,79.22
2018-03-09T08:57:20.255Z,79.17
2018-03-09T08:58:20.264Z,78.41
2018-03-09T08:59:20.241Z,78.94
2018-03-09T09:00:19.975Z,78.75
2018-03-09T09:01:20.229Z,78.27
2018-03-09T09:02:20.213Z,78.31
2018-03-09T09:03:20.220Z,78.56
2018-03-09T09:04:19.942Z,78.65
2018-03-09T09:05:20.193Z,78.59
2018-03-09T09:06:20.200Z,78.31
2018-03-09T09:07:20.202Z,77.93
2018-03-09T09:08:20.174Z,77.64
2018-03-09T09:09:20.172Z,77.83
2018-03-09T09:10:20.181Z,77.64
2018-03-09T09:11:20.156Z,77.55
2018-03-09T09:12:20.141Z,77.01
2018-03-09T09:13:20.226Z,75.87
2018-03-09T09:14:20.129Z,75.49
2018-03-09T09:15:20.122Z,76.16
2018-03-09T09:16:20.118Z,76.35
2018-03-09T09:17:20.108Z,77.2
2018-03-09T09:18:20.101Z,77.11
2018-03-09T09:19:20.099Z,75.87
2018-03-09T09:20:20.090Z,75.87
2018-03-09T09:21:20.098Z,76.54
2018-03-09T09:22:20.078Z,76.16
2018-03-09T09:23:20.070Z,75.87
2018-03-09T09:24:19.806Z,75.59
2018-03-09T09:25:20.057Z,76.25
2018-03-09T09:26:20.052Z,76.25
2018-03-09T09:27:20.349Z,75.87
2018-03-09T09:28:20.044Z,75.2
2018-03-09T09:29:20.114Z,75.2
2018-03-09T09:30:19.769Z,74.44
2018-03-09T09:31:20.029Z,74.54
2018-03-09T09:32:19.782Z,75.24
2018-03-09T09:33:20.017Z,75.15
2018-03-09T09:34:20.003Z,74.48
2018-03-09T09:35:20.001Z,74.19
2018-03-09T09:36:19.992Z,73.72
2018-03-09T09:37:19.988Z,73.52
2018-03-09T09:38:19.974Z,74.1
2018-03-09T09:39:19.966Z,74.48
2018-03-09T09:40:19.970Z,74.1
2018-03-09T09:41:19.957Z,74.19
2018-03-09T09:42:19.695Z,73.24
2018-03-09T09:43:19.944Z,73.43
2018-03-09T09:44:19.940Z,73.52
2018-03-09T09:45:19.941Z,72.96
2018-03-09T09:46:19.673Z,73.05
2018-03-09T09:47:19.925Z,73.33
2018-03-09T09:48:19.912Z,73.24
2018-03-09T09:49:19.654Z,73.72
2018-03-09T09:50:19.903Z,73.43
2018-03-09T09:51:19.908Z,73.05
2018-03-09T09:52:19.905Z,72.76
2018-03-09T09:53:19.949Z,72.38
2018-03-09T09:54:19.903Z,72
2018-03-09T09:55:19.884Z,71.14
2018-03-09T09:56:19.871Z,71.81
2018-03-09T09:57:19.878Z,72
2018-03-09T09:58:19.605Z,72.38
2018-03-09T09:59:19.853Z,71.72
2018-03-09T10:00:19.880Z,71.72
2018-03-09T10:01:19.592Z,71.72
2018-03-09T10:02:19.584Z,71.62
2018-03-09T10:03:19.576Z,72
2018-03-09T10:04:19.851Z,71.72
2018-03-09T10:05:19.818Z,72.38
2018-03-09T10:06:19.809Z,72
2018-03-09T10:07:19.844Z,72.42
2018-03-09T10:08:19.834Z,71.81
2018-03-09T10:09:19.789Z,70.98
2018-03-09T10:10:19.794Z,71.27
2018-03-09T10:11:19.777Z,70.7
2018-03-09T10:12:19.774Z,71.18
2018-03-09T10:13:19.779Z,70.79
2018-03-09T10:14:19.762Z,70.61
2018-03-09T10:15:19.757Z,70.42
2018-03-09T10:16:19.814Z,70.51
2018-03-09T10:17:19.490Z,70.89
2018-03-09T10:18:19.775Z,71.08
2018-03-09T10:19:19.741Z,70.36
2018-03-09T10:20:19.727Z,70.64
2018-03-09T10:21:19.728Z,70.16
2018-03-09T10:22:19.717Z,70.07
2018-03-09T10:23:19.716Z,69.97
2018-03-09T10:24:19.714Z,70.26
2018-03-09T10:25:19.710Z,70.26
2018-03-09T10:26:19.698Z,69.78
2018-03-09T10:27:19.695Z,69.68
2018-03-09T10:28:19.686Z,69.4
2018-03-09T10:29:19.681Z,69.4
2018-03-09T10:30:19.674Z,69.31
2018-03-09T10:31:19.413Z,69.49
2018-03-09T10:32:19.955Z,69.49
2018-03-09T10:33:19.665Z,69.31
2018-03-09T10:34:19.674Z,68.82
2018-03-09T10:35:19.664Z,69.49
2018-03-09T10:36:19.658Z,69.72
2018-03-09T10:37:19.648Z,68.63
2018-03-09T10:38:19.651Z,68.96
2018-03-09T10:39:19.628Z,68.29
2018-03-09T10:40:19.650Z,66.76
2018-03-09T10:41:19.622Z,66.82
2018-03-09T10:42:19.619Z,67.49
2018-03-09T10:43:19.603Z,68.35
2018-03-09T10:44:19.598Z,69.02
2018-03-09T10:45:19.607Z,69.21
2018-03-09T10:46:19.638Z,69.17
2018-03-09T10:47:19.589Z,69.17
2018-03-09T10:48:19.582Z,69.46
2018-03-09T10:49:19.579Z,69.27
2018-03-09T10:50:19.568Z,70.03
2018-03-09T10:51:19.578Z,69.56
2018-03-09T10:52:19.565Z,69.84
2018-03-09T10:53:19.565Z,69.93
2018-03-09T10:54:19.545Z,70.22
2018-03-09T10:55:19.544Z,69.78
2018-03-09T10:56:19.549Z,69.4
2018-03-09T10:57:19.528Z,69.4
2018-03-09T10:58:19.526Z,69.59
2018-03-09T10:59:19.519Z,69.4
2018-03-09T11:00:19.346Z,68.86
2018-03-09T11:01:19.252Z,68.38
2018-03-09T11:02:19.513Z,68.38
2018-03-09T11:03:19.495Z,68.48
2018-03-09T11:04:19.545Z,67.52
2018-03-09T11:05:19.483Z,67.71
2018-03-09T11:06:19.479Z,66.76
2018-03-09T11:07:19.472Z,67.05
2018-03-09T11:08:19.472Z,66.47
2018-03-09T11:09:19.463Z,66.28
2018-03-09T11:10:19.459Z,66.19
2018-03-09T11:11:19.198Z,66.76
2018-03-09T11:12:19.447Z,67.14
2018-03-09T11:13:19.479Z,67.52
2018-03-09T11:14:19.441Z,67.62
2018-03-09T11:15:19.436Z,66.47
2018-03-09T11:16:19.440Z,66.85
2018-03-09T11:17:19.453Z,67.21
2018-03-09T11:18:19.438Z,67.11
2018-03-09T11:19:19.414Z,67.01
2018-03-09T11:20:19.409Z,67.4
2018-03-09T11:21:19.402Z,67.3
2018-03-09T11:22:19.396Z,66.95
2018-03-09T11:23:19.405Z,66.85
2018-03-09T11:24:19.394Z,66.95
2018-03-09T11:25:19.386Z,67.14
2018-03-09T11:26:19.396Z,66.85
2018-03-09T11:27:19.375Z,66.09
2018-03-09T11:28:19.129Z,66
2018-03-09T11:29:19.363Z,66.03
2018-03-09T11:30:19.363Z,65.52
2018-03-09T11:31:19.361Z,66.09
2018-03-09T11:32:19.366Z,65.9
2018-03-09T11:33:19.348Z,66.28
2018-03-09T11:34:19.352Z,65.71
2018-03-09T11:35:19.334Z,65.52
2018-03-09T11:36:19.349Z,65.61
2018-03-09T11:37:19.335Z,65.9
2018-03-09T11:38:19.340Z,66.09
2018-03-09T11:39:19.321Z,66.22
2018-03-09T11:40:19.311Z,66.19
2018-03-09T11:41:19.322Z,65.9
2018-03-09T11:42:19.303Z,65.55
2018-03-09T11:43:19.342Z,65.36
2018-03-09T11:44:19.303Z,66.22
2018-03-09T11:45:19.287Z,66.31
2018-03-09T11:46:19.291Z,66.13
2018-03-09T11:47:19.297Z,65.36
2018-03-09T11:48:19.285Z,65.74
2018-03-09T11:49:19.291Z,65.07
2018-03-09T11:50:19.324Z,65.17
2018-03-09T11:51:19.265Z,65.07
2018-03-09T11:52:19.292Z,65.36
2018-03-09T11:53:19.250Z,65.45
2018-03-09T11:54:19.247Z,65.64
2018-03-09T11:55:19.254Z,65.74
2018-03-09T11:56:18.982Z,65.64
2018-03-09T11:57:19.239Z,64.69
2018-03-09T11:58:19.237Z,65.84
2018-03-09T11:59:19.222Z,65.55
2018-03-09T12:00:19.222Z,65.64
2018-03-09T12:01:19.210Z,66.09
2018-03-09T12:02:19.294Z,65.8
2018-03-09T12:03:19.219Z,66.03
2018-03-09T12:04:19.207Z,66.22
2018-03-09T12:05:19.297Z,65.55
2018-03-09T12:06:19.192Z,65.64
2018-03-09T12:07:19.195Z,65.36
2018-03-09T12:08:19.264Z,65.36
2018-03-09T12:09:19.178Z,65.17
2018-03-09T12:10:19.169Z,65.17
2018-03-09T12:11:19.166Z,64.69
2018-03-09T12:12:19.197Z,65.84
2018-03-09T12:13:19.157Z,65.52
2018-03-09T12:14:19.177Z,65.8
2018-03-09T12:15:19.146Z,66.19
2018-03-09T12:16:18.922Z,66
2018-03-09T12:17:19.150Z,66.56
2018-03-09T12:18:19.135Z,67.4
2018-03-09T12:19:19.129Z,66.95
2018-03-09T12:20:19.148Z,67.14
2018-03-09T12:21:19.135Z,67.4
2018-03-09T12:22:19.113Z,67.77
2018-03-09T12:23:19.106Z,68.44
2018-03-09T12:24:19.103Z,68.26
2018-03-09T12:25:19.096Z,69.21
2018-03-09T12:26:19.095Z,69.11
2018-03-09T12:27:19.088Z,69.37
2018-03-09T12:28:19.081Z,70.03
2018-03-09T12:29:18.820Z,69.93
2018-03-09T12:30:19.071Z,69.56
2018-03-09T12:31:19.103Z,69.27
2018-03-09T12:32:19.063Z,68.98
2018-03-09T12:33:19.049Z,69.37
2018-03-09T12:34:19.050Z,69.46
2018-03-09T12:35:19.041Z,68.88
2018-03-09T12:36:19.054Z,68.88
2018-03-09T12:37:19.030Z,68.88
2018-03-09T12:38:19.025Z,69.27
2018-03-09T12:39:19.021Z,69.65
2018-03-09T12:40:19.018Z,69.17
2018-03-09T12:41:19.009Z,69.37
2018-03-09T12:42:19.001Z,69.37
2018-03-09T12:43:18.995Z,69.46
2018-03-09T12:44:18.990Z,69.65
2018-03-09T12:45:18.984Z,69.08
2018-03-09T12:46:19.201Z,69.56
2018-03-09T12:47:18.974Z,69.02
2018-03-09T12:48:18.972Z,68.16
2018-03-09T12:49:18.956Z,68.92
2018-03-09T12:50:18.955Z,68.06
2018-03-09T12:51:18.691Z,69.02
2018-03-09T12:52:18.947Z,69.11
2018-03-09T12:53:18.939Z,69.21
2018-03-09T12:54:19.020Z,69.31
2018-03-09T12:55:18.924Z,69.02